createdAt,value
2022-11-19T00:03:36.957Z,171.83
2022-11-19T00:13:43.788Z,167.20
2022-11-19T00:23:47.228Z,164.03
2022-11-19T00:33:54.319Z,167.43
2022-11-19T00:43:57.861Z,173.23
2022-11-19T00:54:02.649Z,176.53
2022-11-19T01:04:07.112Z,168.33
2022-11-19T01:14:12.060Z,167.60
2022-11-19T01:24:15.513Z,168.13
2022-11-19T01:34:20.293Z,166.97
2022-11-19T01:45:04.319Z,165.87
2022-11-19T01:55:10.982Z,166.83
2022-11-19T02:05:14.641Z,166.00
2022-11-19T02:15:32.934Z,162.43
2022-11-19T02:25:58.369Z,168.10
2022-11-19T02:36:14.232Z,163.60
2022-11-19T02:46:19.305Z,164.80
2022-11-19T02:56:52.983Z,166.97
2022-11-19T03:06:59.674Z,167.97
2022-11-19T03:17:14.188Z,167.53
2022-11-19T03:27:25.706Z,167.63
2022-11-19T03:37:34.979Z,164.00
2022-11-19T03:47:41.981Z,166.83
2022-11-19T03:57:47.227Z,163.57
2022-11-19T04:07:50.730Z,164.00
2022-11-19T04:17:55.555Z,167.60
2022-11-19T04:27:59.019Z,166.83
2022-11-19T04:38:03.833Z,172.57
2022-11-19T04:48:07.964Z,168.10
2022-11-19T04:58:12.945Z,171.97
2022-11-19T05:08:16.417Z,174.70
2022-11-19T05:18:21.524Z,178.63
2022-11-19T05:28:38.119Z,170.93
2022-11-19T05:38:44.416Z,173.77
2022-11-19T05:48:48.114Z,163.97
2022-11-19T05:58:52.939Z,164.80
2022-11-19T06:08:56.449Z,165.30
2022-11-19T06:19:01.320Z,171.00
2022-11-19T06:29:04.776Z,166.73
2022-11-19T06:39:09.855Z,166.27
2022-11-19T06:49:19.586Z,171.97
2022-11-19T06:59:25.123Z,165.97
2022-11-19T07:09:29.833Z,162.80
2022-11-19T07:19:34.694Z,165.20
2022-11-19T07:29:38.866Z,166.53
2022-11-19T07:39:43.707Z,180.03
2022-11-19T07:49:47.094Z,185.87
2022-11-19T07:59:51.910Z,182.43
2022-11-19T08:09:55.414Z,188.20
2022-11-19T08:20:00.208Z,197.17
2022-11-19T08:30:03.689Z,204.00
2022-11-19T08:40:10.629Z,199.13
2022-11-19T08:50:14.117Z,202.17
2022-11-19T09:00:21.306Z,196.20
2022-11-19T09:22:26.684Z,273.50
2022-11-19T09:32:30.370Z,208.53
2022-11-19T09:42:44.646Z,206.47
2022-11-19T09:52:54.081Z,204.27
2022-11-19T10:03:00.519Z,193.97
2022-11-19T10:13:34.134Z,197.23
2022-11-19T10:23:52.883Z,196.20
2022-11-19T10:34:06.193Z,193.93
2022-11-19T10:44:43.719Z,195.90
2022-11-19T10:54:48.136Z,191.43
2022-11-19T11:05:10.746Z,199.50
2022-11-19T11:15:17.375Z,200.30
2022-11-19T11:25:28.595Z,196.83
2022-11-19T11:35:35.643Z,196.33
2022-11-19T11:45:40.712Z,204.67
2022-11-19T11:55:44.700Z,191.07
2022-11-19T12:06:02.224Z,190.90
2022-11-19T12:16:13.665Z,195.17
2022-11-19T12:26:28.382Z,190.73
2022-11-19T12:36:42.757Z,190.73
2022-11-19T12:46:58.161Z,188.13
2022-11-19T12:57:17.634Z,190.77
2022-11-19T13:07:28.199Z,183.77
2022-11-19T13:17:36.188Z,180.47
2022-11-19T13:27:41.249Z,188.20
2022-11-19T13:37:58.692Z,181.93
2022-11-19T13:48:12.005Z,185.30
2022-11-19T13:58:23.580Z,187.73
2022-11-19T14:08:52.657Z,183.17
2022-11-19T14:19:19.485Z,193.60
2022-11-19T14:29:56.961Z,197.83
2022-11-19T14:40:08.702Z,192.50
2022-11-19T14:50:27.818Z,185.23
2022-11-19T15:00:35.288Z,185.10
2022-11-19T15:11:04.938Z,187.30
2022-11-19T15:21:25.659Z,192.60
2022-11-19T15:31:52.523Z,195.13
2022-11-19T15:42:02.710Z,196.57
2022-11-19T15:52:18.489Z,193.00
2022-11-19T16:02:28.621Z,187.87
2022-11-19T16:12:50.714Z,200.93
2022-11-19T16:22:59.179Z,199.00
2022-11-19T16:33:04.029Z,193.33
2022-11-19T16:43:07.626Z,203.77
2022-11-19T16:53:12.510Z,197.90
2022-11-19T17:03:35.760Z,196.50
2022-11-19T17:13:40.669Z,199.57
2022-11-19T17:23:50.428Z,211.20
2022-11-19T17:33:57.607Z,191.83
2022-11-19T17:44:18.743Z,196.03
2022-11-19T17:54:24.681Z,209.57
2022-11-19T18:04:28.124Z,205.60
2022-11-19T18:14:33.082Z,200.40
2022-11-19T18:24:36.575Z,213.03
2022-11-19T18:34:41.509Z,200.37
2022-11-19T18:44:45.026Z,197.03
2022-11-19T18:54:49.917Z,209.50
2022-11-19T19:04:53.497Z,202.33
2022-11-19T19:14:58.972Z,197.57
2022-11-19T19:25:02.542Z,196.80
2022-11-19T19:35:09.141Z,216.90
2022-11-19T19:45:13.009Z,200.63
2022-11-19T19:55:18.206Z,199.73
2022-11-19T20:05:21.684Z,200.50
2022-11-19T20:15:26.551Z,197.90
2022-11-19T20:25:30.201Z,204.20
2022-11-19T20:35:35.068Z,198.13
2022-11-19T20:45:40.850Z,204.80
2022-11-19T20:56:04.570Z,196.60
2022-11-19T21:06:09.630Z,196.17
2022-11-19T21:16:16.828Z,208.30
2022-11-19T21:26:22.522Z,206.37
2022-11-19T21:36:27.737Z,221.33
2022-11-19T21:46:31.794Z,231.80
2022-11-19T21:56:38.802Z,218.77
2022-11-19T22:06:42.991Z,218.80
2022-11-19T22:16:47.850Z,219.47
2022-11-19T22:26:51.309Z,234.23
2022-11-19T22:36:56.565Z,258.33
2022-11-19T22:47:01.020Z,235.07
2022-11-19T22:57:05.949Z,222.10
2022-11-19T23:07:09.727Z,217.73
2022-11-19T23:17:14.574Z,223.03
2022-11-19T23:27:21.946Z,225.57
2022-11-19T23:37:27.178Z,240.83
2022-11-19T23:47:30.607Z,234.70
2022-11-19T23:57:35.448Z,220.33
